sensor_id;sensor_type;location;lat;lon;timestamp;pressure;altitude;pressure_sealevel;temperature;humidity
65553;BME280;52465;51.560;14.368;2023-01-29T00:01:08;101419.19;;;5.76;67.22
65553;BME280;52465;51.560;14.368;2023-01-29T00:03:34;101450.72;;;5.99;67.09
65553;BME280;52465;51.560;14.368;2023-01-29T00:06:03;101426.88;;;5.78;67.22
65553;BME280;52465;51.560;14.368;2023-01-29T00:08:35;101456.84;;;5.98;67.00
65553;BME280;52465;51.560;14.368;2023-01-29T00:11:05;101455.09;;;5.98;67.05
65553;BME280;52465;51.560;14.368;2023-01-29T00:13:31;101430.50;;;5.90;67.57
65553;BME280;52465;51.560;14.368;2023-01-29T00:15:59;101427.03;;;5.89;67.61
65553;BME280;52465;51.560;14.368;2023-01-29T00:18:28;101448.00;;;6.00;66.91
65553;BME280;52465;51.560;14.368;2023-01-29T00:20:54;101436.25;;;5.95;67.08
65553;BME280;52465;51.560;14.368;2023-01-29T00:23:20;101429.38;;;5.94;66.96
65553;BME280;52465;51.560;14.368;2023-01-29T00:25:46;101341.28;;;5.35;67.10
65553;BME280;52465;51.560;14.368;2023-01-29T00:28:11;101430.31;;;5.93;67.23
65553;BME280;52465;51.560;14.368;2023-01-29T00:30:37;101410.38;;;5.93;67.34
65553;BME280;52465;51.560;14.368;2023-01-29T00:33:04;101399.59;;;5.85;67.22
65553;BME280;52465;51.560;14.368;2023-01-29T00:35:30;101418.69;;;5.98;67.47
65553;BME280;52465;51.560;14.368;2023-01-29T00:37:57;101415.56;;;5.93;67.08
65553;BME280;52465;51.560;14.368;2023-01-29T00:40:24;101384.88;;;5.71;67.36
65553;BME280;52465;51.560;14.368;2023-01-29T00:42:52;101409.44;;;5.94;67.02
65553;BME280;52465;51.560;14.368;2023-01-29T00:45:39;101406.81;;;5.94;67.28
65553;BME280;52465;51.560;14.368;2023-01-29T00:48:04;101419.09;;;5.92;66.76
65553;BME280;52465;51.560;14.368;2023-01-29T00:50:30;101403.22;;;5.82;67.38
65553;BME280;52465;51.560;14.368;2023-01-29T00:52:56;101427.84;;;5.91;67.56
65553;BME280;52465;51.560;14.368;2023-01-29T00:55:22;101397.78;;;5.73;67.41
65553;BME280;52465;51.560;14.368;2023-01-29T00:57:48;101400.91;;;5.78;67.31
65553;BME280;52465;51.560;14.368;2023-01-29T01:00:18;101416.56;;;5.91;67.10
65553;BME280;52465;51.560;14.368;2023-01-29T01:02:46;101425.31;;;5.90;67.15
65553;BME280;52465;51.560;14.368;2023-01-29T01:05:30;101425.13;;;5.93;67.21
65553;BME280;52465;51.560;14.368;2023-01-29T01:07:56;101406.09;;;5.78;67.22
65553;BME280;52465;51.560;14.368;2023-01-29T01:10:29;101399.53;;;5.72;67.45
65553;BME280;52465;51.560;14.368;2023-01-29T01:13:02;101424.28;;;5.92;67.30
65553;BME280;52465;51.560;14.368;2023-01-29T01:15:37;101420.19;;;5.88;67.06
65553;BME280;52465;51.560;14.368;2023-01-29T01:18:03;101402.81;;;5.89;67.21
65553;BME280;52465;51.560;14.368;2023-01-29T01:20:30;101404.34;;;5.93;67.16
65553;BME280;52465;51.560;14.368;2023-01-29T01:22:57;101377.72;;;5.75;67.48
65553;BME280;52465;51.560;14.368;2023-01-29T01:25:23;101372.44;;;5.76;67.30
65553;BME280;52465;51.560;14.368;2023-01-29T01:27:53;101402.75;;;5.90;66.85
65553;BME280;52465;51.560;14.368;2023-01-29T01:30:19;101380.13;;;5.78;67.13
65553;BME280;52465;51.560;14.368;2023-01-29T01:32:45;101365.97;;;5.69;67.53
65553;BME280;52465;51.560;14.368;2023-01-29T01:35:11;101396.78;;;5.88;67.56
65553;BME280;52465;51.560;14.368;2023-01-29T01:37:39;101365.88;;;5.71;67.47
65553;BME280;52465;51.560;14.368;2023-01-29T01:40:09;101381.06;;;5.77;67.15
65553;BME280;52465;51.560;14.368;2023-01-29T01:42:43;101388.38;;;5.84;67.31
65553;BME280;52465;51.560;14.368;2023-01-29T01:45:19;101396.78;;;5.88;67.36
65553;BME280;52465;51.560;14.368;2023-01-29T01:47:50;101380.66;;;5.83;67.63
65553;BME280;52465;51.560;14.368;2023-01-29T01:50:24;101377.78;;;5.88;67.19
65553;BME280;52465;51.560;14.368;2023-01-29T01:52:55;101366.75;;;5.84;67.58
65553;BME280;52465;51.560;14.368;2023-01-29T01:55:25;101366.94;;;5.81;67.32
65553;BME280;52465;51.560;14.368;2023-01-29T01:58:03;101356.38;;;5.84;67.30
65553;BME280;52465;51.560;14.368;2023-01-29T02:00:30;101349.16;;;5.75;67.08
65553;BME280;52465;51.560;14.368;2023-01-29T02:02:56;101358.84;;;5.86;67.00
65553;BME280;52465;51.560;14.368;2023-01-29T02:05:40;101356.84;;;5.76;67.15
65553;BME280;52465;51.560;14.368;2023-01-29T02:08:37;101351.94;;;5.72;67.28
65553;BME280;52465;51.560;14.368;2023-01-29T02:11:24;101380.47;;;5.86;67.09
65553;BME280;52465;51.560;14.368;2023-01-29T02:13:51;101353.69;;;5.71;67.36
65553;BME280;52465;51.560;14.368;2023-01-29T02:16:19;101346.19;;;5.67;67.37
65553;BME280;52465;51.560;14.368;2023-01-29T02:18:44;101364.06;;;5.86;67.54
65553;BME280;52465;51.560;14.368;2023-01-29T02:24:10;101333.31;;;5.65;67.26
65553;BME280;52465;51.560;14.368;2023-01-29T02:29:21;101334.44;;;5.61;67.72
65553;BME280;52465;51.560;14.368;2023-01-29T02:34:47;101373.91;;;5.80;67.45
65553;BME280;52465;51.560;14.368;2023-01-29T02:40:31;101369.66;;;5.79;67.28
65553;BME280;52465;51.560;14.368;2023-01-29T02:43:11;101342.97;;;5.63;67.23
65553;BME280;52465;51.560;14.368;2023-01-29T02:45:52;101372.97;;;5.81;67.24
65553;BME280;52465;51.560;14.368;2023-01-29T02:48:22;101365.69;;;5.74;67.04
65553;BME280;52465;51.560;14.368;2023-01-29T02:50:56;101374.91;;;5.78;66.94
65553;BME280;52465;51.560;14.368;2023-01-29T02:53:31;101381.72;;;5.80;67.41
65553;BME280;52465;51.560;14.368;2023-01-29T02:56:07;101367.06;;;5.79;67.66
65553;BME280;52465;51.560;14.368;2023-01-29T02:58:47;101371.41;;;5.79;67.39
65553;BME280;52465;51.560;14.368;2023-01-29T03:01:20;101363.81;;;5.76;67.21
65553;BME280;52465;51.560;14.368;2023-01-29T03:03:51;101355.28;;;5.74;67.24
65553;BME280;52465;51.560;14.368;2023-01-29T03:06:24;101347.97;;;5.66;67.54
65553;BME280;52465;51.560;14.368;2023-01-29T03:08:58;101367.13;;;5.78;67.65
65553;BME280;52465;51.560;14.368;2023-01-29T03:11:29;101372.44;;;5.76;67.02
65553;BME280;52465;51.560;14.368;2023-01-29T03:14:02;101349.56;;;5.69;67.14
65553;BME280;52465;51.560;14.368;2023-01-29T03:16:37;101360.28;;;5.77;67.63
65553;BME280;52465;51.560;14.368;2023-01-29T03:19:10;101363.09;;;5.74;67.26
65553;BME280;52465;51.560;14.368;2023-01-29T03:21:40;101321.94;;;5.53;67.22
65553;BME280;52465;51.560;14.368;2023-01-29T03:24:34;101361.22;;;5.76;67.20
65553;BME280;52465;51.560;14.368;2023-01-29T03:27:24;101356.00;;;5.76;67.61
65553;BME280;52465;51.560;14.368;2023-01-29T03:30:11;101320.94;;;5.56;67.02
65553;BME280;52465;51.560;14.368;2023-01-29T03:32:58;101351.66;;;5.76;67.05
65553;BME280;52465;51.560;14.368;2023-01-29T03:35:25;101331.53;;;5.66;67.06
65553;BME280;52465;51.560;14.368;2023-01-29T03:38:05;101339.59;;;5.75;67.49
65553;BME280;52465;51.560;14.368;2023-01-29T03:40:41;101341.94;;;5.66;67.32
65553;BME280;52465;51.560;14.368;2023-01-29T03:43:17;101329.34;;;5.60;67.40
65553;BME280;52465;51.560;14.368;2023-01-29T03:46:31;101348.44;;;5.73;67.41
65553;BME280;52465;51.560;14.368;2023-01-29T03:49:20;101346.66;;;5.73;67.79
65553;BME280;52465;51.560;14.368;2023-01-29T03:51:59;101344.06;;;5.73;67.28
65553;BME280;52465;51.560;14.368;2023-01-29T03:54:52;101345.84;;;5.73;67.16
65553;BME280;52465;51.560;14.368;2023-01-29T04:00:39;101332.09;;;5.71;67.07
65553;BME280;52465;51.560;14.368;2023-01-29T04:03:23;101311.06;;;5.61;67.38
65553;BME280;52465;51.560;14.368;2023-01-29T04:08:33;101317.13;;;5.62;67.78
65553;BME280;52465;51.560;14.368;2023-01-29T04:11:06;101326.88;;;5.71;67.37
65553;BME280;52465;51.560;14.368;2023-01-29T04:13:33;101295.53;;;5.47;67.06
65553;BME280;52465;51.560;14.368;2023-01-29T04:16:01;101308.47;;;5.61;67.34
65553;BME280;52465;51.560;14.368;2023-01-29T04:18:28;101322.75;;;5.68;67.33
65553;BME280;52465;51.560;14.368;2023-01-29T04:20:54;101289.94;;;5.53;67.65
65553;BME280;52465;51.560;14.368;2023-01-29T04:23:24;101307.97;;;5.69;67.11
65553;BME280;52465;51.560;14.368;2023-01-29T04:29:03;101307.97;;;5.69;67.24
65553;BME280;52465;51.560;14.368;2023-01-29T04:31:41;101304.13;;;5.62;67.40
65553;BME280;52465;51.560;14.368;2023-01-29T04:34:28;101301.97;;;5.68;67.18
65553;BME280;52465;51.560;14.368;2023-01-29T04:37:12;101277.22;;;5.63;67.41
65553;BME280;52465;51.560;14.368;2023-01-29T04:39:45;101291.56;;;5.68;67.54
65553;BME280;52465;51.560;14.368;2023-01-29T04:42:21;101243.47;;;5.36;66.91
65553;BME280;52465;51.560;14.368;2023-01-29T04:45:38;101266.38;;;5.56;67.19
65553;BME280;52465;51.560;14.368;2023-01-29T04:51:42;101260.25;;;5.57;67.21
65553;BME280;52465;51.560;14.368;2023-01-29T04:54:16;101269.41;;;5.63;67.02
65553;BME280;52465;51.560;14.368;2023-01-29T04:57:40;101266.59;;;5.66;67.11
65553;BME280;52465;51.560;14.368;2023-01-29T05:00:12;101262.34;;;5.65;67.03
65553;BME280;52465;51.560;14.368;2023-01-29T05:02:44;101236.88;;;5.57;67.50
65553;BME280;52465;51.560;14.368;2023-01-29T05:05:12;101247.06;;;5.60;67.07
65553;BME280;52465;51.560;14.368;2023-01-29T05:07:40;101220.22;;;5.47;67.02
65553;BME280;52465;51.560;14.368;2023-01-29T05:10:08;101233.47;;;5.56;67.17
65553;BME280;52465;51.560;14.368;2023-01-29T05:12:37;101234.19;;;5.58;66.84
65553;BME280;52465;51.560;14.368;2023-01-29T05:15:10;101231.69;;;5.57;67.64
65553;BME280;52465;51.560;14.368;2023-01-29T05:17:36;101220.94;;;5.49;67.12
65553;BME280;52465;51.560;14.368;2023-01-29T05:20:03;101214.19;;;5.46;66.89
65553;BME280;52465;51.560;14.368;2023-01-29T05:22:30;101214.00;;;5.49;67.00
65553;BME280;52465;51.560;14.368;2023-01-29T05:24:58;101200.69;;;5.41;67.05
65553;BME280;52465;51.560;14.368;2023-01-29T05:27:30;101235.84;;;5.60;67.14
65553;BME280;52465;51.560;14.368;2023-01-29T05:30:18;101230.03;;;5.56;67.17
65553;BME280;52465;51.560;14.368;2023-01-29T05:32:43;101218.47;;;5.47;66.94
65553;BME280;52465;51.560;14.368;2023-01-29T05:35:09;101231.56;;;5.46;67.42
65553;BME280;52465;51.560;14.368;2023-01-29T05:37:37;101206.47;;;5.32;67.20
65553;BME280;52465;51.560;14.368;2023-01-29T05:40:04;101243.53;;;5.61;67.57
65553;BME280;52465;51.560;14.368;2023-01-29T05:42:33;101206.81;;;5.40;67.30
65553;BME280;52465;51.560;14.368;2023-01-29T05:44:59;101196.91;;;5.32;67.16
65553;BME280;52465;51.560;14.368;2023-01-29T05:47:24;101217.53;;;5.48;67.12
65553;BME280;52465;51.560;14.368;2023-01-29T05:49:50;101230.84;;;5.56;67.21
65553;BME280;52465;51.560;14.368;2023-01-29T05:52:16;101241.03;;;5.60;66.97
65553;BME280;52465;51.560;14.368;2023-01-29T05:54:41;101224.59;;;5.46;67.24
65553;BME280;52465;51.560;14.368;2023-01-29T05:57:07;101234.19;;;5.58;66.97
65553;BME280;52465;51.560;14.368;2023-01-29T05:59:32;101241.84;;;5.60;67.05
65553;BME280;52465;51.560;14.368;2023-01-29T06:01:59;101242.78;;;5.59;67.62
65553;BME280;52465;51.560;14.368;2023-01-29T06:04:24;101213.84;;;5.38;67.51
65553;BME280;52465;51.560;14.368;2023-01-29T06:06:50;101226.34;;;5.46;67.30
65553;BME280;52465;51.560;14.368;2023-01-29T06:09:16;101228.59;;;5.38;66.99
65553;BME280;52465;51.560;14.368;2023-01-29T06:11:45;101236.63;;;5.47;67.08
65553;BME280;52465;51.560;14.368;2023-01-29T06:14:10;101276.66;;;5.57;67.44
65553;BME280;52465;51.560;14.368;2023-01-29T06:16:36;101249.31;;;5.39;67.04
65553;BME280;52465;51.560;14.368;2023-01-29T06:19:02;101263.88;;;5.54;67.32
65553;BME280;52465;51.560;14.368;2023-01-29T06:21:27;101255.25;;;5.54;67.24
65553;BME280;52465;51.560;14.368;2023-01-29T06:23:56;101242.41;;;5.38;66.83
65553;BME280;52465;51.560;14.368;2023-01-29T06:26:21;101252.22;;;5.47;67.10
65553;BME280;52465;51.560;14.368;2023-01-29T06:28:48;101278.63;;;5.54;67.11
65553;BME280;52465;51.560;14.368;2023-01-29T06:31:13;101257.81;;;5.41;67.19
65553;BME280;52465;51.560;14.368;2023-01-29T06:33:39;101280.38;;;5.53;67.22
65553;BME280;52465;51.560;14.368;2023-01-29T06:36:05;101272.88;;;5.49;67.08
65553;BME280;52465;51.560;14.368;2023-01-29T06:38:31;101258.75;;;5.40;67.11
65553;BME280;52465;51.560;14.368;2023-01-29T06:40:58;101286.91;;;5.46;67.34
65553;BME280;52465;51.560;14.368;2023-01-29T06:43:23;101242.66;;;5.21;66.65
65553;BME280;52465;51.560;14.368;2023-01-29T06:45:51;101307.94;;;5.56;66.99
65553;BME280;52465;51.560;14.368;2023-01-29T06:48:18;101310.06;;;5.49;67.11
65553;BME280;52465;51.560;14.368;2023-01-29T06:50:46;101307.16;;;5.41;67.27
65553;BME280;52465;51.560;14.368;2023-01-29T06:53:14;101329.75;;;5.53;67.29
65553;BME280;52465;51.560;14.368;2023-01-29T06:55:40;101314.84;;;5.43;67.17
65553;BME280;52465;51.560;14.368;2023-01-29T06:58:06;101334.28;;;5.50;67.12
65553;BME280;52465;51.560;14.368;2023-01-29T07:00:33;101328.25;;;5.49;67.00
65553;BME280;52465;51.560;14.368;2023-01-29T07:02:59;101304.94;;;5.35;67.26
65553;BME280;52465;51.560;14.368;2023-01-29T07:05:25;101298.28;;;5.31;66.69
65553;BME280;52465;51.560;14.368;2023-01-29T07:07:50;101311.81;;;5.36;67.00
65553;BME280;52465;51.560;14.368;2023-01-29T07:10:19;101313.91;;;5.44;67.02
65553;BME280;52465;51.560;14.368;2023-01-29T07:12:44;101276.97;;;5.26;66.87
65553;BME280;52465;51.560;14.368;2023-01-29T07:15:10;101310.28;;;5.46;66.94
65553;BME280;52465;51.560;14.368;2023-01-29T07:17:37;101303.72;;;5.41;67.12
65553;BME280;52465;51.560;14.368;2023-01-29T07:20:04;101305.50;;;5.40;67.03
65553;BME280;52465;51.560;14.368;2023-01-29T07:22:30;101327.44;;;5.49;67.27
65553;BME280;52465;51.560;14.368;2023-01-29T07:24:57;101290.47;;;5.31;66.78
65553;BME280;52465;51.560;14.368;2023-01-29T07:27:22;101334.09;;;5.53;66.99
65553;BME280;52465;51.560;14.368;2023-01-29T07:29:48;101327.97;;;5.54;66.93
65553;BME280;52465;51.560;14.368;2023-01-29T07:32:16;101273.63;;;5.24;66.62
65553;BME280;52465;51.560;14.368;2023-01-29T07:34:45;101291.75;;;5.38;67.22
65553;BME280;52465;51.560;14.368;2023-01-29T07:37:15;101307.88;;;5.43;66.78
65553;BME280;52465;51.560;14.368;2023-01-29T07:39:41;101311.78;;;5.50;66.91
65553;BME280;52465;51.560;14.368;2023-01-29T07:42:06;101304.28;;;5.46;66.86
65553;BME280;52465;51.560;14.368;2023-01-29T07:44:32;101270.44;;;5.33;67.01
65553;BME280;52465;51.560;14.368;2023-01-29T07:46:57;101267.56;;;5.38;66.88
65553;BME280;52465;51.560;14.368;2023-01-29T07:49:23;101241.25;;;5.29;67.18
65553;BME280;52465;51.560;14.368;2023-01-29T07:51:48;101266.16;;;5.46;67.01
65553;BME280;52465;51.560;14.368;2023-01-29T07:54:14;101227.22;;;5.32;67.34
65553;BME280;52465;51.560;14.368;2023-01-29T07:56:41;101261.97;;;5.44;66.70
65553;BME280;52465;51.560;14.368;2023-01-29T07:59:09;101249.09;;;5.42;67.17
65553;BME280;52465;51.560;14.368;2023-01-29T08:01:34;101255.75;;;5.46;66.85
65553;BME280;52465;51.560;14.368;2023-01-29T08:04:00;101262.72;;;5.46;66.85
65553;BME280;52465;51.560;14.368;2023-01-29T08:06:26;101249.31;;;5.39;66.34
65553;BME280;52465;51.560;14.368;2023-01-29T08:08:52;101238.16;;;5.37;67.11
65553;BME280;52465;51.560;14.368;2023-01-29T08:11:19;101270.84;;;5.54;67.08
65553;BME280;52465;51.560;14.368;2023-01-29T08:13:45;101253.44;;;5.42;66.86
65553;BME280;52465;51.560;14.368;2023-01-29T08:16:11;101256.69;;;5.45;66.89
65553;BME280;52465;51.560;14.368;2023-01-29T08:18:37;101271.03;;;5.51;66.55
65553;BME280;52465;51.560;14.368;2023-01-29T08:21:08;101240.44;;;5.29;66.79
65553;BME280;52465;51.560;14.368;2023-01-29T08:23:34;101261.34;;;5.40;66.78
65553;BME280;52465;51.560;14.368;2023-01-29T08:26:01;101261.97;;;5.44;66.64
65553;BME280;52465;51.560;14.368;2023-01-29T08:28:27;101268.44;;;5.51;67.13
65553;BME280;52465;51.560;14.368;2023-01-29T08:30:53;101272.81;;;5.50;66.99
65553;BME280;52465;51.560;14.368;2023-01-29T08:33:21;101284.84;;;5.51;67.24
65553;BME280;52465;51.560;14.368;2023-01-29T08:35:50;101273.66;;;5.51;66.74
65553;BME280;52465;51.560;14.368;2023-01-29T08:38:16;101255.22;;;5.41;66.76
65553;BME280;52465;51.560;14.368;2023-01-29T08:40:44;101263.25;;;5.51;67.14
65553;BME280;52465;51.560;14.368;2023-01-29T08:43:11;101246.09;;;5.48;66.93
65553;BME280;52465;51.560;14.368;2023-01-29T08:45:41;101203.34;;;5.27;66.99
65553;BME280;52465;51.560;14.368;2023-01-29T08:48:40;101213.25;;;5.35;67.13
65553;BME280;52465;51.560;14.368;2023-01-29T08:51:07;101229.13;;;5.43;66.97
65553;BME280;52465;51.560;14.368;2023-01-29T08:53:33;101217.50;;;5.36;66.78
65553;BME280;52465;51.560;14.368;2023-01-29T08:55:59;101207.81;;;5.25;66.54
65553;BME280;52465;51.560;14.368;2023-01-29T08:58:24;101181.16;;;5.09;66.76
65553;BME280;52465;51.560;14.368;2023-01-29T09:00:50;101232.56;;;5.43;66.82
65553;BME280;52465;51.560;14.368;2023-01-29T09:03:18;101210.50;;;5.23;66.68
65553;BME280;52465;51.560;14.368;2023-01-29T09:05:45;101244.44;;;5.47;66.75
65553;BME280;52465;51.560;14.368;2023-01-29T09:08:11;101219.44;;;5.32;66.97
65553;BME280;52465;51.560;14.368;2023-01-29T09:10:38;101234.44;;;5.41;66.94
65553;BME280;52465;51.560;14.368;2023-01-29T09:13:05;101239.13;;;5.49;66.81
65553;BME280;52465;51.560;14.368;2023-01-29T09:15:33;101245.97;;;5.50;66.48
65553;BME280;52465;51.560;14.368;2023-01-29T09:18:02;101242.38;;;5.52;67.00
65553;BME280;52465;51.560;14.368;2023-01-29T09:20:31;101208.53;;;5.27;66.73
65553;BME280;52465;51.560;14.368;2023-01-29T09:22:56;101220.19;;;5.34;66.39
65553;BME280;52465;51.560;14.368;2023-01-29T09:25:24;101219.03;;;5.38;66.85
65553;BME280;52465;51.560;14.368;2023-01-29T09:27:49;101197.13;;;5.29;66.61
65553;BME280;52465;51.560;14.368;2023-01-29T09:30:16;101234.16;;;5.46;66.81
65553;BME280;52465;51.560;14.368;2023-01-29T09:32:44;101211.38;;;5.37;66.40
65553;BME280;52465;51.560;14.368;2023-01-29T09:35:10;101206.06;;;5.38;66.92
65553;BME280;52465;51.560;14.368;2023-01-29T09:37:35;101211.91;;;5.42;66.82
65553;BME280;52465;51.560;14.368;2023-01-29T09:40:04;101194.25;;;5.34;66.96
65553;BME280;52465;51.560;14.368;2023-01-29T09:42:44;101219.50;;;5.45;66.39
65553;BME280;52465;51.560;14.368;2023-01-29T09:45:20;101199.50;;;5.32;67.02
65553;BME280;52465;51.560;14.368;2023-01-29T09:47:49;101221.88;;;5.48;66.77
65553;BME280;52465;51.560;14.368;2023-01-29T09:50:22;101213.56;;;5.43;66.76
65553;BME280;52465;51.560;14.368;2023-01-29T09:53:03;101222.00;;;5.46;66.87
65553;BME280;52465;51.560;14.368;2023-01-29T09:58:00;101186.94;;;5.26;66.76
65553;BME280;52465;51.560;14.368;2023-01-29T10:00:50;101223.66;;;5.47;66.40
65553;BME280;52465;51.560;14.368;2023-01-29T10:03:35;101224.38;;;5.49;66.48
65553;BME280;52465;51.560;14.368;2023-01-29T10:06:24;101222.94;;;5.45;66.92
65553;BME280;52465;51.560;14.368;2023-01-29T10:12:14;101234.75;;;5.49;66.84
65553;BME280;52465;51.560;14.368;2023-01-29T10:20:27;101221.06;;;5.47;66.49
65553;BME280;52465;51.560;14.368;2023-01-29T10:22:59;101222.72;;;5.48;66.65
65553;BME280;52465;51.560;14.368;2023-01-29T10:25:32;101207.34;;;5.45;66.72
65553;BME280;52465;51.560;14.368;2023-01-29T10:28:16;101210.66;;;5.47;66.51
65553;BME280;52465;51.560;14.368;2023-01-29T10:30:49;101207.97;;;5.49;66.62
65553;BME280;52465;51.560;14.368;2023-01-29T10:33:24;101184.28;;;5.41;66.48
65553;BME280;52465;51.560;14.368;2023-01-29T10:35:54;101181.56;;;5.42;66.92
65553;BME280;52465;51.560;14.368;2023-01-29T10:38:50;101178.69;;;5.47;66.39
65553;BME280;52465;51.560;14.368;2023-01-29T10:41:43;101174.31;;;5.47;66.84
65553;BME280;52465;51.560;14.368;2023-01-29T10:47:28;101138.03;;;5.33;66.68
65553;BME280;52465;51.560;14.368;2023-01-29T10:50:16;101157.06;;;5.46;66.48
65553;BME280;52465;51.560;14.368;2023-01-29T10:53:11;101157.91;;;5.47;66.67
65553;BME280;52465;51.560;14.368;2023-01-29T10:55:56;101143.34;;;5.44;66.59
65553;BME280;52465;51.560;14.368;2023-01-29T10:58:37;101150.22;;;5.45;66.80
65553;BME280;52465;51.560;14.368;2023-01-29T11:01:05;101119.78;;;5.35;66.67
65553;BME280;52465;51.560;14.368;2023-01-29T11:03:34;101095.13;;;5.15;66.93
65553;BME280;52465;51.560;14.368;2023-01-29T11:06:21;101133.34;;;5.38;66.62
65553;BME280;52465;51.560;14.368;2023-01-29T11:09:19;101097.72;;;5.27;66.54
65553;BME280;52465;51.560;14.368;2023-01-29T11:14:35;101126.09;;;5.43;66.47
65553;BME280;52465;51.560;14.368;2023-01-29T11:17:03;101131.22;;;5.45;66.58
65553;BME280;52465;51.560;14.368;2023-01-29T11:19:37;101127.97;;;5.41;66.61
65553;BME280;52465;51.560;14.368;2023-01-29T11:22:03;101131.69;;;5.37;66.97
65553;BME280;52465;51.560;14.368;2023-01-29T11:24:31;101102.84;;;5.29;66.61
65553;BME280;52465;51.560;14.368;2023-01-29T11:26:58;101131.09;;;5.46;66.78
65553;BME280;52465;51.560;14.368;2023-01-29T11:32:00;101119.25;;;5.42;66.69
65553;BME280;52465;51.560;14.368;2023-01-29T11:34:30;101124.44;;;5.42;66.53
65553;BME280;52465;51.560;14.368;2023-01-29T11:37:00;101122.56;;;5.44;66.87
65553;BME280;52465;51.560;14.368;2023-01-29T11:39:30;101092.16;;;5.34;67.53
65553;BME280;52465;51.560;14.368;2023-01-29T11:42:02;101092.56;;;5.40;66.39
65553;BME280;52465;51.560;14.368;2023-01-29T11:44:41;101058.88;;;5.26;66.82
65553;BME280;52465;51.560;14.368;2023-01-29T11:47:27;101073.34;;;5.30;66.70
65553;BME280;52465;51.560;14.368;2023-01-29T11:49:56;101100.78;;;5.47;66.60
65553;BME280;52465;51.560;14.368;2023-01-29T11:52:26;101081.25;;;5.41;66.22
65553;BME280;52465;51.560;14.368;2023-01-29T11:55:00;101083.63;;;5.44;66.62
65553;BME280;52465;51.560;14.368;2023-01-29T11:57:36;101029.09;;;5.19;66.66
65553;BME280;52465;51.560;14.368;2023-01-29T12:00:06;101032.22;;;5.24;66.66
65553;BME280;52465;51.560;14.368;2023-01-29T12:02:44;101054.13;;;5.32;66.55
65553;BME280;52465;51.560;14.368;2023-01-29T12:05:16;101073.03;;;5.47;66.68
65553;BME280;52465;51.560;14.368;2023-01-29T12:07:49;101070.44;;;5.47;66.73
65553;BME280;52465;51.560;14.368;2023-01-29T12:13:14;101017.16;;;5.16;66.75
65553;BME280;52465;51.560;14.368;2023-01-29T12:15:46;101051.44;;;5.34;66.84
65553;BME280;52465;51.560;14.368;2023-01-29T12:18:24;101052.25;;;5.47;66.57
65553;BME280;52465;51.560;14.368;2023-01-29T12:20:56;101019.13;;;5.25;66.51
65553;BME280;52465;51.560;14.368;2023-01-29T12:26:13;101057.44;;;5.47;66.63
65553;BME280;52465;51.560;14.368;2023-01-29T12:28:53;101049.66;;;5.47;66.73
65553;BME280;52465;51.560;14.368;2023-01-29T12:31:33;101042.81;;;5.46;66.57
65553;BME280;52465;51.560;14.368;2023-01-29T12:34:10;101043.63;;;5.47;66.63
65553;BME280;52465;51.560;14.368;2023-01-29T12:36:42;101013.81;;;5.27;66.76
65553;BME280;52465;51.560;14.368;2023-01-29T12:39:17;101005.31;;;5.25;66.47
65553;BME280;52465;51.560;14.368;2023-01-29T12:44:40;101025.34;;;5.36;66.85
65553;BME280;52465;51.560;14.368;2023-01-29T12:47:19;101037.09;;;5.41;66.55
65553;BME280;52465;51.560;14.368;2023-01-29T12:49:50;101037.09;;;5.41;66.91
65553;BME280;52465;51.560;14.368;2023-01-29T12:52:24;101011.75;;;5.32;66.56
65553;BME280;52465;51.560;14.368;2023-01-29T12:55:19;100997.00;;;5.20;66.43
65553;BME280;52465;51.560;14.368;2023-01-29T12:57:49;101018.19;;;5.39;66.57
65553;BME280;52465;51.560;14.368;2023-01-29T13:03:08;101007.50;;;5.31;66.47
65553;BME280;52465;51.560;14.368;2023-01-29T13:05:41;101002.09;;;5.34;66.70
65553;BME280;52465;51.560;14.368;2023-01-29T13:08:15;101002.81;;;5.36;66.56
65553;BME280;52465;51.560;14.368;2023-01-29T13:10:49;101014.66;;;5.40;66.30
65553;BME280;52465;51.560;14.368;2023-01-29T13:13:29;101009.91;;;5.34;66.31
65553;BME280;52465;51.560;14.368;2023-01-29T13:15:56;101006.25;;;5.37;66.52
65553;BME280;52465;51.560;14.368;2023-01-29T13:18:44;100988.50;;;5.30;66.72
65553;BME280;52465;51.560;14.368;2023-01-29T13:21:16;100941.47;;;5.10;66.68
65553;BME280;52465;51.560;14.368;2023-01-29T13:23:51;100976.44;;;5.29;66.48
65553;BME280;52465;51.560;14.368;2023-01-29T13:26:21;100973.03;;;5.29;66.91
65553;BME280;52465;51.560;14.368;2023-01-29T13:28:48;100952.88;;;5.20;66.38
65553;BME280;52465;51.560;14.368;2023-01-29T13:31:37;100982.88;;;5.37;66.71
65553;BME280;52465;51.560;14.368;2023-01-29T13:34:12;100985.16;;;5.41;66.55
65553;BME280;52465;51.560;14.368;2023-01-29T13:36:42;100959.66;;;5.22;66.53
65553;BME280;52465;51.560;14.368;2023-01-29T13:42:25;100965.31;;;5.27;66.60
65553;BME280;52465;51.560;14.368;2023-01-29T13:45:00;100946.03;;;5.19;66.58
65553;BME280;52465;51.560;14.368;2023-01-29T13:47:30;100976.53;;;5.41;66.67
65553;BME280;52465;51.560;14.368;2023-01-29T13:50:07;100967.00;;;5.41;66.56
65553;BME280;52465;51.560;14.368;2023-01-29T13:52:39;100904.31;;;5.09;66.17
65553;BME280;52465;51.560;14.368;2023-01-29T14:10:39;100938.84;;;5.35;66.45
65553;BME280;52465;51.560;14.368;2023-01-29T14:18:50;100932.75;;;5.23;66.33
65553;BME280;52465;51.560;14.368;2023-01-29T14:21:31;100959.19;;;5.41;66.28
65553;BME280;52465;51.560;14.368;2023-01-29T14:24:07;100962.00;;;5.38;66.53
65553;BME280;52465;51.560;14.368;2023-01-29T14:26:40;100966.03;;;5.42;66.77
65553;BME280;52465;51.560;14.368;2023-01-29T14:29:23;100964.38;;;5.41;66.66
65553;BME280;52465;51.560;14.368;2023-01-29T14:34:33;100941.88;;;5.29;66.49
65553;BME280;52465;51.560;14.368;2023-01-29T14:39:47;100951.94;;;5.34;66.41